createdAt,value
2018-06-12T00:01:36.256Z,4.50
2018-06-12T00:04:06.149Z,4.77
2018-06-12T00:06:35.991Z,4.37
2018-06-12T00:09:07.483Z,5.13
2018-06-12T00:11:37.368Z,4.33
2018-06-12T00:14:07.220Z,4.70
2018-06-12T00:16:37.011Z,4.33
2018-06-12T00:19:06.872Z,4.27
2018-06-12T00:21:36.716Z,4.37
2018-06-12T00:24:06.550Z,4.30
2018-06-12T00:26:36.384Z,4.53
2018-06-12T00:29:06.252Z,4.90
2018-06-12T00:31:36.080Z,5.03
2018-06-12T00:34:06.504Z,5.07
2018-06-12T00:36:36.361Z,5.20
2018-06-12T00:39:08.292Z,5.67
2018-06-12T00:41:38.123Z,5.60
2018-06-12T00:44:07.975Z,5.37
2018-06-12T00:46:37.801Z,5.60
2018-06-12T00:49:07.600Z,5.80
2018-06-12T00:51:37.432Z,5.63
2018-06-12T00:54:07.244Z,6.63
2018-06-12T00:56:47.885Z,6.37
2018-06-12T00:59:17.688Z,6.80
2018-06-12T01:01:47.489Z,6.57
2018-06-12T01:04:17.344Z,6.40
2018-06-12T01:06:47.169Z,6.53
2018-06-12T01:09:17.046Z,6.70
2018-06-12T01:11:46.904Z,6.10
2018-06-12T01:14:16.732Z,6.67
2018-06-12T01:16:46.573Z,6.30
2018-06-12T01:19:16.388Z,6.67
2018-06-12T01:21:46.224Z,6.40
2018-06-12T01:24:16.052Z,6.87
2018-06-12T01:26:45.957Z,6.43
2018-06-12T01:29:15.805Z,6.67
2018-06-12T01:31:45.610Z,7.10
2018-06-12T01:34:15.452Z,6.67
2018-06-12T01:36:45.320Z,6.73
2018-06-12T01:39:15.152Z,6.80
2018-06-12T01:41:44.958Z,6.50
2018-06-12T01:44:14.796Z,6.93
2018-06-12T01:46:44.688Z,6.80
2018-06-12T01:49:14.526Z,6.77
2018-06-12T01:51:44.328Z,6.63
2018-06-12T01:54:14.199Z,6.53
2018-06-12T01:56:44.038Z,6.30
2018-06-12T01:59:13.870Z,6.93
2018-06-12T02:01:43.724Z,6.73
2018-06-12T02:04:13.552Z,6.67
2018-06-12T02:06:43.375Z,7.00
2018-06-12T02:09:13.236Z,7.13
2018-06-12T02:11:43.033Z,7.03
2018-06-12T02:14:12.872Z,6.77
2018-06-12T02:16:42.681Z,7.30
2018-06-12T02:19:12.597Z,6.47
2018-06-12T02:21:42.388Z,7.43
2018-06-12T02:24:12.280Z,6.93
2018-06-12T02:26:42.075Z,7.10
2018-06-12T02:29:12.170Z,7.27
2018-06-12T02:31:42.004Z,6.97
2018-06-12T02:34:11.885Z,7.30
2018-06-12T02:36:41.708Z,6.73
2018-06-12T02:39:11.536Z,6.50
2018-06-12T02:41:41.302Z,7.33
2018-06-12T02:44:11.088Z,7.60
2018-06-12T02:46:41.006Z,7.17
2018-06-12T02:49:10.844Z,7.43
2018-06-12T02:51:40.650Z,8.40
2018-06-12T02:54:10.544Z,7.33
2018-06-12T02:56:40.396Z,7.87
2018-06-12T02:59:10.280Z,7.77
2018-06-12T03:01:40.117Z,8.00
2018-06-12T03:04:09.931Z,7.80
2018-06-12T03:06:39.752Z,7.50
2018-06-12T03:09:09.902Z,7.93
2018-06-12T03:11:39.741Z,7.30
2018-06-12T03:14:09.578Z,7.63
2018-06-12T03:16:39.425Z,7.30
2018-06-12T03:19:09.219Z,7.00
2018-06-12T03:21:39.058Z,7.63
2018-06-12T03:24:08.883Z,8.13
2018-06-12T03:26:38.864Z,7.47
2018-06-12T03:29:08.702Z,8.17
2018-06-12T03:31:38.559Z,7.40
2018-06-12T03:34:08.376Z,8.40
2018-06-12T03:36:38.215Z,8.20
2018-06-12T03:39:08.301Z,7.23
2018-06-12T03:41:38.124Z,6.63
2018-06-12T03:44:08.112Z,7.70
2018-06-12T03:46:37.929Z,6.63
2018-06-12T03:49:07.756Z,6.50
2018-06-12T03:51:37.558Z,6.50
2018-06-12T03:54:07.410Z,7.07
2018-06-12T03:56:37.234Z,6.43
2018-06-12T03:59:07.083Z,6.67
2018-06-12T04:01:36.880Z,6.60
2018-06-12T04:04:06.787Z,6.83
2018-06-12T04:06:38.129Z,8.03
2018-06-12T04:09:09.521Z,6.63
2018-06-12T04:11:39.337Z,6.60
2018-06-12T04:14:09.179Z,6.03
2018-06-12T04:16:39.032Z,5.90
2018-06-12T04:19:08.876Z,6.03
2018-06-12T04:21:39.344Z,5.90
2018-06-12T04:24:09.140Z,5.70
2018-06-12T04:26:39.024Z,5.40
2018-06-12T04:29:08.804Z,5.60
2018-06-12T04:31:38.639Z,6.00
2018-06-12T04:34:08.445Z,6.07
2018-06-12T04:36:38.285Z,7.03
2018-06-12T04:39:08.216Z,6.60
2018-06-12T04:41:38.068Z,6.57
2018-06-12T04:44:07.929Z,9.17
2018-06-12T04:46:37.803Z,7.90
2018-06-12T04:49:07.609Z,8.90
2018-06-12T04:51:37.545Z,9.73
2018-06-12T04:54:07.400Z,8.13
2018-06-12T04:56:37.316Z,7.23
2018-06-12T04:59:07.249Z,7.73
2018-06-12T05:01:37.112Z,8.30
2018-06-12T05:04:07.015Z,9.03
2018-06-12T05:06:36.815Z,7.10
2018-06-12T05:09:08.523Z,8.13
2018-06-12T05:11:38.372Z,7.57
2018-06-12T05:14:08.257Z,6.57
2018-06-12T05:16:38.108Z,7.07
2018-06-12T05:19:07.996Z,6.83
2018-06-12T05:21:37.878Z,5.70
2018-06-12T05:24:08.368Z,5.67
2018-06-12T05:26:39.480Z,5.63
2018-06-12T05:29:09.652Z,6.90
2018-06-12T05:31:40.473Z,6.83
2018-06-12T05:34:11.433Z,5.50
2018-06-12T05:36:41.758Z,6.87
2018-06-12T05:39:12.196Z,5.40
2018-06-12T05:41:42.122Z,6.00
2018-06-12T05:44:12.184Z,6.70
2018-06-12T05:46:42.110Z,6.27
2018-06-12T05:49:12.029Z,6.00
2018-06-12T05:51:41.984Z,5.03
2018-06-12T05:54:11.828Z,5.93
2018-06-12T05:56:41.632Z,5.90
2018-06-12T05:59:11.521Z,5.40
2018-06-12T06:01:41.409Z,5.67
2018-06-12T06:04:11.276Z,5.50
2018-06-12T06:06:41.635Z,4.87
2018-06-12T06:09:12.098Z,6.80
2018-06-12T06:11:42.414Z,5.07
2018-06-12T06:14:12.577Z,4.97
2018-06-12T06:16:42.840Z,4.77
2018-06-12T06:19:14.066Z,5.37
2018-06-12T06:21:44.357Z,4.97
2018-06-12T06:24:14.477Z,6.47
2018-06-12T06:26:44.644Z,5.77
2018-06-12T06:29:14.855Z,9.00
2018-06-12T06:31:45.098Z,5.53
2018-06-12T06:34:15.093Z,5.57
2018-06-12T06:36:45.033Z,5.87
2018-06-12T06:39:15.234Z,7.40
2018-06-12T06:41:45.289Z,5.73
2018-06-12T06:44:15.362Z,5.10
2018-06-12T06:46:45.279Z,5.10
2018-06-12T06:49:15.257Z,5.70
2018-06-12T06:51:45.219Z,6.23
2018-06-12T06:54:15.071Z,6.00
2018-06-12T06:56:44.948Z,4.87
2018-06-12T06:59:14.823Z,5.33
2018-06-12T07:01:44.744Z,5.43
2018-06-12T07:04:14.659Z,4.70
2018-06-12T07:06:44.688Z,5.30
2018-06-12T07:09:14.596Z,4.87
2018-06-12T07:11:44.521Z,4.33
2018-06-12T07:14:14.464Z,5.00
2018-06-12T07:16:44.373Z,5.20
2018-06-12T07:19:14.392Z,5.40
2018-06-12T07:21:44.181Z,5.40
2018-06-12T07:24:14.709Z,5.60
2018-06-12T07:26:44.580Z,4.87
2018-06-12T07:29:14.575Z,5.33
2018-06-12T07:31:44.424Z,5.03
2018-06-12T07:34:14.372Z,5.00
2018-06-12T07:36:44.278Z,4.77
2018-06-12T07:39:14.212Z,5.07
2018-06-12T07:41:44.452Z,5.20
2018-06-12T07:44:16.363Z,4.80
2018-06-12T07:46:49.536Z,5.20
2018-06-12T07:49:20.015Z,4.93
2018-06-12T07:51:50.211Z,5.27
2018-06-12T07:54:20.750Z,5.40
2018-06-12T07:56:50.933Z,4.57
2018-06-12T07:59:21.176Z,4.40
2018-06-12T08:01:51.461Z,4.37
2018-06-12T08:04:21.304Z,6.53
2018-06-12T08:06:51.116Z,4.90
2018-06-12T08:09:20.941Z,5.10
2018-06-12T08:11:51.656Z,5.07
2018-06-12T08:14:21.540Z,5.07
2018-06-12T08:16:51.408Z,5.23
2018-06-12T08:19:21.341Z,5.30
2018-06-12T08:21:51.217Z,5.50
2018-06-12T08:24:21.160Z,5.27
2018-06-12T08:26:51.089Z,5.30
2018-06-12T08:29:21.000Z,5.37
2018-06-12T08:31:50.921Z,5.83
2018-06-12T08:34:20.769Z,4.97
2018-06-12T08:36:50.652Z,4.47
2018-06-12T08:39:20.588Z,5.33
2018-06-12T08:41:50.452Z,4.70
2018-06-12T08:44:20.455Z,4.50
2018-06-12T08:46:51.368Z,4.60
2018-06-12T08:49:22.445Z,5.20
2018-06-12T08:51:56.374Z,4.70
2018-06-12T08:54:26.477Z,4.10
2018-06-12T08:56:56.489Z,5.00
2018-06-12T08:59:26.415Z,4.20
2018-06-12T09:01:58.316Z,4.60
2018-06-12T09:04:30.691Z,4.67
2018-06-12T09:07:02.293Z,6.80
2018-06-12T09:09:32.224Z,4.60
2018-06-12T09:12:02.168Z,4.33
2018-06-12T09:14:32.063Z,4.43
2018-06-12T09:17:02.004Z,4.80
2018-06-12T09:19:31.908Z,4.50
2018-06-12T09:22:01.782Z,4.67
2018-06-12T09:24:31.639Z,4.57
2018-06-12T09:27:01.517Z,5.07
2018-06-12T09:29:31.476Z,4.80
2018-06-12T09:32:01.357Z,4.80
2018-06-12T09:34:31.360Z,5.70
2018-06-12T09:37:01.467Z,5.10
2018-06-12T09:39:31.384Z,5.00
2018-06-12T09:42:01.919Z,5.80
2018-06-12T09:44:31.777Z,4.63
2018-06-12T09:47:01.903Z,5.00
2018-06-12T09:49:31.878Z,4.80
2018-06-12T09:52:01.823Z,4.93
2018-06-12T09:54:31.727Z,4.90
2018-06-12T09:57:01.630Z,4.23
2018-06-12T09:59:31.432Z,4.50
2018-06-12T10:02:01.249Z,4.80
2018-06-12T10:04:31.184Z,4.90
2018-06-12T10:07:01.081Z,4.67
2018-06-12T10:09:31.056Z,4.57
2018-06-12T10:12:01.018Z,4.47
2018-06-12T10:14:30.894Z,5.23
2018-06-12T10:17:00.821Z,4.90
2018-06-12T10:19:30.769Z,5.00
2018-06-12T10:22:00.664Z,4.87
2018-06-12T10:24:30.473Z,4.93
2018-06-12T10:27:00.364Z,5.17
2018-06-12T10:29:30.192Z,4.97
2018-06-12T10:32:00.074Z,5.27
2018-06-12T10:34:29.948Z,5.03
2018-06-12T10:36:59.868Z,4.77
2018-06-12T10:39:29.779Z,4.70
2018-06-12T10:41:59.635Z,4.97
2018-06-12T10:44:29.570Z,4.70
2018-06-12T10:46:59.437Z,5.07
2018-06-12T10:49:29.244Z,5.07
2018-06-12T10:51:59.094Z,4.87
2018-06-12T10:54:28.941Z,4.80
2018-06-12T10:56:58.776Z,5.37
2018-06-12T10:59:28.576Z,4.30
2018-06-12T11:01:58.472Z,4.67
2018-06-12T11:04:28.261Z,4.40
2018-06-12T11:06:58.157Z,4.47
2018-06-12T11:09:28.068Z,4.47
2018-06-12T11:11:58.386Z,4.73
2018-06-12T11:14:28.277Z,4.60
2018-06-12T11:16:58.168Z,4.50
2018-06-12T11:19:28.255Z,4.07
2018-06-12T11:21:58.124Z,5.23
2018-06-12T11:24:28.150Z,5.00
2018-06-12T11:26:58.150Z,4.33
2018-06-12T11:29:28.132Z,4.97
2018-06-12T11:31:57.988Z,4.50
2018-06-12T11:34:27.888Z,5.20
2018-06-12T11:36:57.848Z,4.43
2018-06-12T11:39:27.724Z,4.50
2018-06-12T11:41:57.721Z,4.53
2018-06-12T11:44:27.588Z,4.77
2018-06-12T11:46:57.523Z,5.30
2018-06-12T11:49:27.517Z,4.90
2018-06-12T11:51:57.360Z,4.97
2018-06-12T11:54:27.240Z,4.50
2018-06-12T11:56:57.084Z,4.80
2018-06-12T11:59:26.997Z,5.37
2018-06-12T12:01:56.849Z,4.93
2018-06-12T12:04:26.764Z,5.17
2018-06-12T12:06:56.610Z,4.93
2018-06-12T12:09:26.564Z,5.20
2018-06-12T12:11:56.444Z,5.30
2018-06-12T12:14:26.239Z,5.30
2018-06-12T12:16:56.118Z,5.10
2018-06-12T12:19:25.919Z,5.40
2018-06-12T12:21:55.794Z,5.57
2018-06-12T12:24:25.677Z,5.20
2018-06-12T12:26:55.531Z,5.23
2018-06-12T12:29:25.364Z,5.60
2018-06-12T12:31:55.204Z,4.93
2018-06-12T12:34:25.241Z,5.47
2018-06-12T12:36:55.188Z,5.63
2018-06-12T12:39:25.056Z,4.93
2018-06-12T12:41:55.033Z,5.37
2018-06-12T12:44:24.923Z,5.27
2018-06-12T12:46:54.812Z,5.80
2018-06-12T12:49:24.804Z,5.87
2018-06-12T12:51:55.852Z,4.62
2018-06-12T12:54:25.774Z,5.90
2018-06-12T12:56:55.696Z,6.00
2018-06-12T12:59:25.564Z,5.73
2018-06-12T13:01:55.869Z,5.50
2018-06-12T13:04:25.917Z,5.55
2018-06-12T13:06:55.776Z,5.22
2018-06-12T13:09:25.754Z,5.58
2018-06-12T13:11:55.596Z,5.63
2018-06-12T13:14:25.600Z,5.80
2018-06-12T13:16:55.393Z,5.83
2018-06-12T13:19:25.281Z,6.23
2018-06-12T13:21:55.728Z,6.03
2018-06-12T13:24:25.578Z,6.22
2018-06-12T13:26:55.484Z,7.53
2018-06-12T13:29:25.372Z,6.25
2018-06-12T13:31:55.256Z,7.28
2018-06-12T13:34:25.149Z,7.87
2018-06-12T13:36:55.089Z,6.60
2018-06-12T13:39:24.987Z,6.40
2018-06-12T13:41:54.912Z,6.00
2018-06-12T13:44:24.888Z,6.05
2018-06-12T13:46:54.894Z,6.42
2018-06-12T13:49:24.711Z,6.53
2018-06-12T13:51:54.621Z,6.30
2018-06-12T13:54:24.484Z,7.28
2018-06-12T13:56:54.376Z,6.22
2018-06-12T13:59:24.299Z,6.83
2018-06-12T14:01:54.181Z,7.20
2018-06-12T14:04:24.050Z,6.60
2018-06-12T14:06:53.876Z,6.08
2018-06-12T14:09:23.728Z,6.22
2018-06-12T14:11:53.657Z,7.65
2018-06-12T14:14:23.604Z,6.40
2018-06-12T14:16:53.616Z,6.12
2018-06-12T14:19:23.635Z,5.78
2018-06-12T14:21:53.526Z,6.03
2018-06-12T14:24:23.455Z,6.37
2018-06-12T14:26:53.382Z,6.27
2018-06-12T14:29:23.292Z,6.22
2018-06-12T14:31:53.225Z,6.70
2018-06-12T14:34:23.064Z,6.30
2018-06-12T14:36:52.901Z,5.60
2018-06-12T14:39:22.766Z,6.00
2018-06-12T14:41:52.601Z,6.10
2018-06-12T14:44:22.400Z,6.00
2018-06-12T14:46:52.276Z,5.87
2018-06-12T14:49:22.068Z,6.10
2018-06-12T14:51:51.904Z,5.83
2018-06-12T14:54:21.768Z,5.80
2018-06-12T14:56:51.644Z,6.23
2018-06-12T14:59:21.505Z,5.63
2018-06-12T15:01:51.345Z,5.90
2018-06-12T15:04:21.190Z,5.83
2018-06-12T15:06:50.995Z,5.60
2018-06-12T15:09:20.836Z,5.67
2018-06-12T15:11:50.760Z,6.03
2018-06-12T15:14:20.588Z,6.03
2018-06-12T15:16:50.384Z,5.43
2018-06-12T15:19:20.226Z,5.53
2018-06-12T15:21:50.024Z,5.60
2018-06-12T15:24:19.872Z,5.33
2018-06-12T15:26:49.686Z,5.40
2018-06-12T15:29:19.589Z,5.57
2018-06-12T15:31:49.442Z,5.50
2018-06-12T15:34:19.237Z,6.10
2018-06-12T15:36:49.104Z,5.90
2018-06-12T15:39:18.907Z,6.00
2018-06-12T15:41:48.792Z,5.70
2018-06-12T15:44:18.587Z,5.63
2018-06-12T15:46:48.423Z,5.30
2018-06-12T15:49:18.248Z,6.27
2018-06-12T15:51:48.083Z,6.10
2018-06-12T15:54:17.932Z,5.23
2018-06-12T15:56:47.717Z,5.50
2018-06-12T15:59:17.589Z,5.20
2018-06-12T16:01:47.392Z,6.10
2018-06-12T16:04:17.241Z,5.93
2018-06-12T16:06:47.022Z,5.70
2018-06-12T16:09:16.886Z,5.60
2018-06-12T16:11:46.767Z,5.73
2018-06-12T16:14:16.644Z,6.07
2018-06-12T16:16:46.442Z,5.90
2018-06-12T16:19:16.309Z,5.87
2018-06-12T16:21:46.156Z,6.00
2018-06-12T16:24:15.989Z,5.93
2018-06-12T16:26:45.832Z,6.07
2018-06-12T16:29:15.645Z,5.77
2018-06-12T16:31:45.540Z,6.60
2018-06-12T16:34:15.352Z,5.17
2018-06-12T16:36:45.234Z,5.53
2018-06-12T16:39:15.048Z,6.27
2018-06-12T16:41:44.895Z,5.77
2018-06-12T16:44:14.684Z,5.90
2018-06-12T16:46:44.520Z,5.70
2018-06-12T16:49:14.353Z,5.87
2018-06-12T16:51:44.192Z,5.57
2018-06-12T16:54:13.993Z,6.57
2018-06-12T16:56:43.974Z,6.63
2018-06-12T16:59:13.818Z,6.17
2018-06-12T17:01:43.809Z,7.13
2018-06-12T17:04:13.620Z,7.27
2018-06-12T17:06:43.472Z,6.57
2018-06-12T17:09:13.282Z,6.30
2018-06-12T17:11:43.132Z,7.10
2018-06-12T17:14:13.032Z,6.90
2018-06-12T17:16:42.864Z,6.13
2018-06-12T17:19:12.776Z,6.60
2018-06-12T17:21:42.633Z,6.70
2018-06-12T17:24:12.497Z,6.67
2018-06-12T17:26:42.420Z,6.40
2018-06-12T17:29:12.248Z,6.83
2018-06-12T17:31:42.072Z,6.43
2018-06-12T17:34:11.907Z,6.10
2018-06-12T17:36:41.739Z,6.40
2018-06-12T17:39:11.574Z,6.03
2018-06-12T17:41:41.506Z,6.20
2018-06-12T17:44:11.347Z,6.07
2018-06-12T17:46:41.152Z,6.33
2018-06-12T17:49:10.996Z,5.90
2018-06-12T17:51:40.801Z,6.70
2018-06-12T17:54:10.651Z,6.13
2018-06-12T17:56:40.484Z,6.20
2018-06-12T17:59:10.297Z,5.97
2018-06-12T18:01:40.181Z,6.20
2018-06-12T18:04:10.025Z,6.53
2018-06-12T18:06:39.847Z,6.80
2018-06-12T18:09:09.689Z,6.77
2018-06-12T18:11:39.504Z,6.80
2018-06-12T18:14:09.389Z,7.90
2018-06-12T18:16:39.223Z,7.80
2018-06-12T18:19:09.053Z,7.60
2018-06-12T18:21:38.888Z,7.10
2018-06-12T18:24:08.710Z,7.27
2018-06-12T18:26:38.502Z,7.63
2018-06-12T18:29:08.336Z,7.63
2018-06-12T18:31:38.204Z,7.60
2018-06-12T18:34:08.019Z,8.53
2018-06-12T18:36:37.911Z,8.03
2018-06-12T18:39:08.777Z,7.23
2018-06-12T18:41:38.678Z,14.67
2018-06-12T18:44:08.564Z,13.07
2018-06-12T18:46:38.372Z,10.00
2018-06-12T18:49:08.211Z,7.00
2018-06-12T18:51:38.044Z,6.30
2018-06-12T18:54:07.882Z,6.67
2018-06-12T18:56:37.785Z,7.03
2018-06-12T18:59:07.620Z,6.50
2018-06-12T19:01:37.432Z,6.13
2018-06-12T19:04:07.304Z,6.20
2018-06-12T19:06:37.160Z,6.47
2018-06-12T19:09:07.707Z,6.77
2018-06-12T19:11:37.503Z,5.70
2018-06-12T19:14:07.349Z,6.40
2018-06-12T19:16:37.164Z,6.30
2018-06-12T19:19:07.001Z,5.80
2018-06-12T19:21:36.848Z,6.30
2018-06-12T19:24:06.924Z,5.93
2018-06-12T19:26:36.841Z,6.23
2018-06-12T19:29:06.744Z,6.27
2018-06-12T19:31:36.568Z,6.60
2018-06-12T19:34:06.440Z,6.87
2018-06-12T19:36:36.248Z,6.90
2018-06-12T19:39:07.780Z,6.33
2018-06-12T19:41:37.586Z,7.07
2018-06-12T19:44:07.434Z,6.30
2018-06-12T19:46:37.284Z,7.20
2018-06-12T19:49:07.089Z,6.73
2018-06-12T19:51:36.956Z,6.30
2018-06-12T19:54:06.796Z,6.60
2018-06-12T19:56:36.657Z,6.47
2018-06-12T19:59:07.480Z,6.17
2018-06-12T20:01:37.284Z,6.23
2018-06-12T20:04:07.088Z,6.50
2018-06-12T20:06:37.000Z,6.27
2018-06-12T20:09:08.392Z,7.13
2018-06-12T20:11:38.260Z,6.90
2018-06-12T20:14:08.101Z,7.40
2018-06-12T20:16:37.976Z,6.40
2018-06-12T20:19:07.772Z,6.70
2018-06-12T20:21:37.620Z,6.87
2018-06-12T20:24:07.509Z,6.90
2018-06-12T20:26:37.350Z,6.37
2018-06-12T20:29:07.144Z,8.40
2018-06-12T20:31:37.071Z,7.20
2018-06-12T20:34:07.025Z,6.80
2018-06-12T20:36:36.864Z,7.37
2018-06-12T20:39:08.549Z,7.07
2018-06-12T20:41:38.398Z,7.30
2018-06-12T20:44:08.256Z,6.73
2018-06-12T20:46:38.094Z,7.40
2018-06-12T20:49:07.968Z,7.60
2018-06-12T20:51:37.785Z,7.70
2018-06-12T20:54:07.708Z,7.30
2018-06-12T20:56:37.551Z,7.43
2018-06-12T20:59:07.462Z,7.60
2018-06-12T21:01:37.321Z,7.97
2018-06-12T21:04:07.191Z,8.10
2018-06-12T21:06:37.008Z,8.50
2018-06-12T21:09:07.200Z,8.90
2018-06-12T21:11:37.000Z,8.03
2018-06-12T21:14:06.848Z,8.20
2018-06-12T21:16:36.649Z,8.33
2018-06-12T21:19:06.476Z,6.83
2018-06-12T21:21:36.272Z,7.27
2018-06-12T21:24:06.212Z,6.60
2018-06-12T21:26:36.005Z,7.10
2018-06-12T21:29:05.868Z,6.63
2018-06-12T21:31:35.689Z,5.80
2018-06-12T21:34:05.577Z,6.60
2018-06-12T21:36:35.384Z,6.30
2018-06-12T21:39:06.822Z,6.87
2018-06-12T21:41:36.846Z,6.93
2018-06-12T21:44:06.702Z,6.73
2018-06-12T21:46:36.548Z,6.97
2018-06-12T21:49:06.338Z,6.60
2018-06-12T21:51:36.168Z,7.33
2018-06-12T21:54:06.006Z,6.87
2018-06-12T21:56:35.867Z,6.40
2018-06-12T21:59:05.785Z,6.47
2018-06-12T22:01:35.627Z,6.73
2018-06-12T22:04:05.418Z,7.10
2018-06-12T22:06:35.255Z,6.47
2018-06-12T22:09:06.303Z,6.97
2018-06-12T22:11:36.139Z,7.23
2018-06-12T22:14:05.889Z,7.00
2018-06-12T22:16:35.650Z,6.73
2018-06-12T22:19:05.519Z,6.30
2018-06-12T22:21:35.256Z,6.47
2018-06-12T22:24:05.147Z,6.50
2018-06-12T22:26:34.880Z,6.03
2018-06-12T22:29:04.903Z,5.83
2018-06-12T22:31:34.634Z,6.13
2018-06-12T22:34:04.491Z,6.17
2018-06-12T22:36:34.287Z,5.93
2018-06-12T22:39:04.973Z,6.17
2018-06-12T22:41:34.775Z,5.80
2018-06-12T22:44:05.074Z,5.87
2018-06-12T22:46:34.850Z,5.80
2018-06-12T22:49:04.571Z,6.40
2018-06-12T22:51:34.334Z,6.00
2018-06-12T22:54:04.085Z,6.50
2018-06-12T22:56:33.857Z,5.50
2018-06-12T22:59:03.649Z,5.93
2018-06-12T23:01:33.467Z,4.90
2018-06-12T23:04:03.306Z,5.10
2018-06-12T23:06:33.156Z,5.37
2018-06-12T23:09:03.100Z,4.80
2018-06-12T23:11:32.945Z,5.50
2018-06-12T23:14:02.811Z,4.63
2018-06-12T23:16:32.740Z,4.47
2018-06-12T23:19:02.585Z,4.40
2018-06-12T23:21:46.221Z,4.53
2018-06-12T23:24:15.984Z,4.50
2018-06-12T23:26:45.808Z,4.37
2018-06-12T23:29:15.612Z,5.07
2018-06-12T23:31:45.432Z,5.00
2018-06-12T23:34:15.264Z,4.43
2018-06-12T23:36:45.131Z,4.70
2018-06-12T23:39:15.052Z,4.93
2018-06-12T23:41:44.956Z,4.90
2018-06-12T23:44:14.788Z,4.20
2018-06-12T23:46:44.620Z,4.70
2018-06-12T23:49:14.407Z,4.37
2018-06-12T23:51:44.230Z,4.57
2018-06-12T23:54:14.033Z,4.40
2018-06-12T23:56:43.879Z,4.50
2018-06-12T23:59:13.712Z,4.80
